sensor_id;sensor_type;location;lat;lon;timestamp;temperature;humidity
65472;DHT22;52068;50.710;14.492;2023-12-20T00:02:08;32.75;25.94
65472;DHT22;52068;50.710;14.492;2023-12-20T00:04:34;32.85;25.74
65472;DHT22;52068;50.710;14.492;2023-12-20T00:06:59;32.71;25.97
65472;DHT22;52068;50.710;14.492;2023-12-20T00:09:24;32.43;26.28
65472;DHT22;52068;50.710;14.492;2023-12-20T00:11:50;32.02;26.69
65472;DHT22;52068;50.710;14.492;2023-12-20T00:14:15;31.58;27.28
65472;DHT22;52068;50.710;14.492;2023-12-20T00:16:40;31.07;27.94
65472;DHT22;52068;50.710;14.492;2023-12-20T00:19:06;30.57;28.71
65472;DHT22;52068;50.710;14.492;2023-12-20T00:21:31;30.05;29.37
65472;DHT22;52068;50.710;14.492;2023-12-20T00:23:57;29.61;30.03
65472;DHT22;52068;50.710;14.492;2023-12-20T00:26:22;29.04;30.71
65472;DHT22;52068;50.710;14.492;2023-12-20T00:28:47;28.49;31.48
65472;DHT22;52068;50.710;14.492;2023-12-20T00:31:13;28.01;32.31
65472;DHT22;52068;50.710;14.492;2023-12-20T00:33:38;27.57;33.03
65472;DHT22;52068;50.710;14.492;2023-12-20T00:36:05;27.25;33.56
65472;DHT22;52068;50.710;14.492;2023-12-20T00:38:30;27.27;33.83
65472;DHT22;52068;50.710;14.492;2023-12-20T00:40:56;27.74;33.03
65472;DHT22;52068;50.710;14.492;2023-12-20T00:43:21;28.55;31.69
65472;DHT22;52068;50.710;14.492;2023-12-20T00:45:46;29.48;30.36
65472;DHT22;52068;50.710;14.492;2023-12-20T00:48:12;30.36;29.04
65472;DHT22;52068;50.710;14.492;2023-12-20T00:50:37;31.14;28.05
65472;DHT22;52068;50.710;14.492;2023-12-20T00:53:03;31.83;27.10
65472;DHT22;52068;50.710;14.492;2023-12-20T00:55:28;32.30;26.52
65472;DHT22;52068;50.710;14.492;2023-12-20T00:57:54;32.61;26.02
65472;DHT22;52068;50.710;14.492;2023-12-20T01:00:19;32.74;25.86
65472;DHT22;52068;50.710;14.492;2023-12-20T01:02:44;32.70;25.87
65472;DHT22;52068;50.710;14.492;2023-12-20T01:05:11;32.51;26.06
65472;DHT22;52068;50.710;14.492;2023-12-20T01:07:37;32.17;26.41
65472;DHT22;52068;50.710;14.492;2023-12-20T01:10:03;31.80;26.92
65472;DHT22;52068;50.710;14.492;2023-12-20T01:12:28;31.34;27.54
65472;DHT22;52068;50.710;14.492;2023-12-20T01:14:53;30.83;28.17
65472;DHT22;52068;50.710;14.492;2023-12-20T01:17:19;30.39;28.84
65472;DHT22;52068;50.710;14.492;2023-12-20T01:19:44;29.90;29.50
65472;DHT22;52068;50.710;14.492;2023-12-20T01:22:09;29.47;30.11
65472;DHT22;52068;50.710;14.492;2023-12-20T01:24:35;29.03;30.68
65472;DHT22;52068;50.710;14.492;2023-12-20T01:27:00;28.55;31.36
65472;DHT22;52068;50.710;14.492;2023-12-20T01:29:26;28.08;32.20
65472;DHT22;52068;50.710;14.492;2023-12-20T01:31:51;27.76;32.76
65472;DHT22;52068;50.710;14.492;2023-12-20T01:34:17;27.77;32.73
65472;DHT22;52068;50.710;14.492;2023-12-20T01:36:42;28.12;32.24
65472;DHT22;52068;50.710;14.492;2023-12-20T01:39:08;28.65;31.37
65472;DHT22;52068;50.710;14.492;2023-12-20T01:41:33;29.27;30.51
65472;DHT22;52068;50.710;14.492;2023-12-20T01:43:59;29.88;29.56
65472;DHT22;52068;50.710;14.492;2023-12-20T01:46:24;30.50;28.72
65472;DHT22;52068;50.710;14.492;2023-12-20T01:48:50;31.07;27.93
65472;DHT22;52068;50.710;14.492;2023-12-20T01:51:16;31.46;27.40
65472;DHT22;52068;50.710;14.492;2023-12-20T01:53:43;31.76;27.01
65472;DHT22;52068;50.710;14.492;2023-12-20T01:56:09;31.92;26.73
65472;DHT22;52068;50.710;14.492;2023-12-20T01:58:39;31.94;26.69
65472;DHT22;52068;50.710;14.492;2023-12-20T02:01:06;31.77;26.89
65472;DHT22;52068;50.710;14.492;2023-12-20T02:03:31;31.52;27.19
65472;DHT22;52068;50.710;14.492;2023-12-20T02:05:57;31.22;27.69
65472;DHT22;52068;50.710;14.492;2023-12-20T02:08:23;30.80;28.26
65472;DHT22;52068;50.710;14.492;2023-12-20T02:10:48;30.39;28.83
65472;DHT22;52068;50.710;14.492;2023-12-20T02:13:14;29.89;29.48
65472;DHT22;52068;50.710;14.492;2023-12-20T02:15:39;29.45;30.11
65472;DHT22;52068;50.710;14.492;2023-12-20T02:18:07;29.02;30.77
65472;DHT22;52068;50.710;14.492;2023-12-20T02:20:32;28.53;31.54
65472;DHT22;52068;50.710;14.492;2023-12-20T02:22:58;28.04;32.24
65472;DHT22;52068;50.710;14.492;2023-12-20T02:25:23;27.61;32.95
65472;DHT22;52068;50.710;14.492;2023-12-20T02:27:49;27.27;33.74
65472;DHT22;52068;50.710;14.492;2023-12-20T02:30:15;27.13;34.02
65472;DHT22;52068;50.710;14.492;2023-12-20T02:32:40;27.39;33.59
65472;DHT22;52068;50.710;14.492;2023-12-20T02:35:06;27.95;32.73
65472;DHT22;52068;50.710;14.492;2023-12-20T02:37:32;28.66;31.58
65472;DHT22;52068;50.710;14.492;2023-12-20T02:39:58;29.41;30.47
65472;DHT22;52068;50.710;14.492;2023-12-20T02:42:23;30.06;29.44
65472;DHT22;52068;50.710;14.492;2023-12-20T02:44:48;30.74;28.50
65472;DHT22;52068;50.710;14.492;2023-12-20T02:47:14;31.28;27.75
65472;DHT22;52068;50.710;14.492;2023-12-20T02:49:39;31.69;27.24
65472;DHT22;52068;50.710;14.492;2023-12-20T02:52:05;31.93;26.90
65472;DHT22;52068;50.710;14.492;2023-12-20T02:54:30;32.05;26.69
65472;DHT22;52068;50.710;14.492;2023-12-20T02:56:56;31.99;26.72
65472;DHT22;52068;50.710;14.492;2023-12-20T02:59:21;31.80;27.08
65472;DHT22;52068;50.710;14.492;2023-12-20T03:01:46;31.48;27.29
65472;DHT22;52068;50.710;14.492;2023-12-20T03:04:12;31.12;27.86
65472;DHT22;52068;50.710;14.492;2023-12-20T03:06:38;30.67;28.41
65472;DHT22;52068;50.710;14.492;2023-12-20T03:09:04;30.26;28.99
65472;DHT22;52068;50.710;14.492;2023-12-20T03:11:29;29.79;29.65
65472;DHT22;52068;50.710;14.492;2023-12-20T03:13:55;29.35;30.33
65472;DHT22;52068;50.710;14.492;2023-12-20T03:16:21;28.87;30.99
65472;DHT22;52068;50.710;14.492;2023-12-20T03:18:46;28.42;31.68
65472;DHT22;52068;50.710;14.492;2023-12-20T03:21:12;27.95;32.46
65472;DHT22;52068;50.710;14.492;2023-12-20T03:23:37;27.51;33.28
65472;DHT22;52068;50.710;14.492;2023-12-20T03:26:03;27.27;33.79
65472;DHT22;52068;50.710;14.492;2023-12-20T03:28:29;27.23;33.82
65472;DHT22;52068;50.710;14.492;2023-12-20T03:30:54;27.63;33.25
65472;DHT22;52068;50.710;14.492;2023-12-20T03:33:20;28.25;32.25
65472;DHT22;52068;50.710;14.492;2023-12-20T03:35:45;29.00;31.05
65472;DHT22;52068;50.710;14.492;2023-12-20T03:38:11;29.72;29.91
65472;DHT22;52068;50.710;14.492;2023-12-20T03:40:36;30.39;29.03
65472;DHT22;52068;50.710;14.492;2023-12-20T03:43:02;30.98;28.16
65472;DHT22;52068;50.710;14.492;2023-12-20T03:45:27;31.45;27.56
65472;DHT22;52068;50.710;14.492;2023-12-20T03:47:52;31.80;27.16
65472;DHT22;52068;50.710;14.492;2023-12-20T03:50:24;31.99;26.87
65472;DHT22;52068;50.710;14.492;2023-12-20T03:52:50;31.96;26.83
65472;DHT22;52068;50.710;14.492;2023-12-20T03:55:15;31.77;27.05
65472;DHT22;52068;50.710;14.492;2023-12-20T03:57:41;31.50;27.38
65472;DHT22;52068;50.710;14.492;2023-12-20T04:00:10;31.10;27.96
65472;DHT22;52068;50.710;14.492;2023-12-20T04:02:37;30.70;28.42
65472;DHT22;52068;50.710;14.492;2023-12-20T04:05:02;30.26;29.09
65472;DHT22;52068;50.710;14.492;2023-12-20T04:07:27;29.78;29.80
65472;DHT22;52068;50.710;14.492;2023-12-20T04:09:53;29.37;30.33
65472;DHT22;52068;50.710;14.492;2023-12-20T04:12:18;28.92;31.06
65472;DHT22;52068;50.710;14.492;2023-12-20T04:14:44;28.39;31.83
65472;DHT22;52068;50.710;14.492;2023-12-20T04:17:09;27.88;32.56
65472;DHT22;52068;50.710;14.492;2023-12-20T04:19:34;27.50;33.30
65472;DHT22;52068;50.710;14.492;2023-12-20T04:22:00;27.16;34.00
65472;DHT22;52068;50.710;14.492;2023-12-20T04:24:25;27.15;33.97
65472;DHT22;52068;50.710;14.492;2023-12-20T04:26:50;27.53;33.46
65472;DHT22;52068;50.710;14.492;2023-12-20T04:29:16;28.18;32.31
65472;DHT22;52068;50.710;14.492;2023-12-20T04:31:42;29.00;31.09
65472;DHT22;52068;50.710;14.492;2023-12-20T04:34:07;29.74;29.93
65472;DHT22;52068;50.710;14.492;2023-12-20T04:36:33;30.44;28.94
65472;DHT22;52068;50.710;14.492;2023-12-20T04:38:58;31.01;28.12
65472;DHT22;52068;50.710;14.492;2023-12-20T04:41:24;31.52;27.35
65472;DHT22;52068;50.710;14.492;2023-12-20T04:43:50;31.87;26.98
65472;DHT22;52068;50.710;14.492;2023-12-20T04:46:15;32.00;26.77
65472;DHT22;52068;50.710;14.492;2023-12-20T04:48:41;31.96;26.75
65472;DHT22;52068;50.710;14.492;2023-12-20T04:51:06;31.80;26.91
65472;DHT22;52068;50.710;14.492;2023-12-20T04:53:31;31.52;27.32
65472;DHT22;52068;50.710;14.492;2023-12-20T04:55:57;31.11;27.80
65472;DHT22;52068;50.710;14.492;2023-12-20T04:58:22;30.70;28.42
65472;DHT22;52068;50.710;14.492;2023-12-20T05:00:48;30.23;29.04
65472;DHT22;52068;50.710;14.492;2023-12-20T05:03:13;29.74;29.70
65472;DHT22;52068;50.710;14.492;2023-12-20T05:05:38;29.30;30.30
65472;DHT22;52068;50.710;14.492;2023-12-20T05:08:04;28.80;30.96
65472;DHT22;52068;50.710;14.492;2023-12-20T05:10:30;28.38;31.68
65472;DHT22;52068;50.710;14.492;2023-12-20T05:12:55;27.88;32.43
65472;DHT22;52068;50.710;14.492;2023-12-20T05:15:20;27.44;33.18
65472;DHT22;52068;50.710;14.492;2023-12-20T05:17:46;27.10;33.82
65472;DHT22;52068;50.710;14.492;2023-12-20T05:20:11;27.26;33.65
65472;DHT22;52068;50.710;14.492;2023-12-20T05:22:37;27.68;32.89
65472;DHT22;52068;50.710;14.492;2023-12-20T05:25:02;28.39;31.78
65472;DHT22;52068;50.710;14.492;2023-12-20T05:27:28;29.14;30.64
65472;DHT22;52068;50.710;14.492;2023-12-20T05:29:53;29.88;29.59
65472;DHT22;52068;50.710;14.492;2023-12-20T05:32:22;30.57;28.68
65472;DHT22;52068;50.710;14.492;2023-12-20T05:34:48;31.10;27.83
65472;DHT22;52068;50.710;14.492;2023-12-20T05:37:13;31.53;27.26
65472;DHT22;52068;50.710;14.492;2023-12-20T05:39:39;31.80;27.03
65472;DHT22;52068;50.710;14.492;2023-12-20T05:42:04;31.94;26.87
65472;DHT22;52068;50.710;14.492;2023-12-20T05:44:30;31.97;26.72
65472;DHT22;52068;50.710;14.492;2023-12-20T05:46:55;31.85;26.82
65472;DHT22;52068;50.710;14.492;2023-12-20T05:49:20;31.62;27.13
65472;DHT22;52068;50.710;14.492;2023-12-20T05:51:47;31.29;27.50
65472;DHT22;52068;50.710;14.492;2023-12-20T05:54:12;30.91;28.03
65472;DHT22;52068;50.710;14.492;2023-12-20T05:56:38;30.50;28.53
65472;DHT22;52068;50.710;14.492;2023-12-20T05:59:03;30.12;29.07
65472;DHT22;52068;50.710;14.492;2023-12-20T06:01:29;29.72;29.58
65472;DHT22;52068;50.710;14.492;2023-12-20T06:03:54;29.37;30.16
65472;DHT22;52068;50.710;14.492;2023-12-20T06:06:19;29.03;30.61
65472;DHT22;52068;50.710;14.492;2023-12-20T06:08:45;28.67;31.14
65472;DHT22;52068;50.710;14.492;2023-12-20T06:11:10;28.39;31.66
65472;DHT22;52068;50.710;14.492;2023-12-20T06:13:36;28.11;32.38
65472;DHT22;52068;50.710;14.492;2023-12-20T06:16:01;27.91;32.56
65472;DHT22;52068;50.710;14.492;2023-12-20T06:18:27;27.90;32.56
65472;DHT22;52068;50.710;14.492;2023-12-20T06:20:52;27.85;32.59
65472;DHT22;52068;50.710;14.492;2023-12-20T06:23:17;27.91;32.50
65472;DHT22;52068;50.710;14.492;2023-12-20T06:25:43;27.98;32.49
65472;DHT22;52068;50.710;14.492;2023-12-20T06:28:09;28.02;32.34
65472;DHT22;52068;50.710;14.492;2023-12-20T06:30:35;28.14;32.21
65472;DHT22;52068;50.710;14.492;2023-12-20T06:33:02;28.25;31.97
65472;DHT22;52068;50.710;14.492;2023-12-20T06:35:28;28.31;31.87
65472;DHT22;52068;50.710;14.492;2023-12-20T06:37:53;28.38;31.73
65472;DHT22;52068;50.710;14.492;2023-12-20T06:40:18;28.45;31.56
65472;DHT22;52068;50.710;14.492;2023-12-20T06:42:46;28.53;31.48
65472;DHT22;52068;50.710;14.492;2023-12-20T06:45:11;28.60;31.35
65472;DHT22;52068;50.710;14.492;2023-12-20T06:47:37;28.67;31.21
65472;DHT22;52068;50.710;14.492;2023-12-20T06:50:03;28.70;31.23
65472;DHT22;52068;50.710;14.492;2023-12-20T06:52:28;28.79;31.10
65472;DHT22;52068;50.710;14.492;2023-12-20T06:54:54;28.84;31.00
65472;DHT22;52068;50.710;14.492;2023-12-20T06:57:19;28.89;30.94
65472;DHT22;52068;50.710;14.492;2023-12-20T06:59:45;28.93;30.86
65472;DHT22;52068;50.710;14.492;2023-12-20T07:02:10;28.92;30.83
65472;DHT22;52068;50.710;14.492;2023-12-20T07:04:39;28.93;30.79
65472;DHT22;52068;50.710;14.492;2023-12-20T07:07:05;28.92;30.90
65472;DHT22;52068;50.710;14.492;2023-12-20T07:09:30;28.82;31.13
65472;DHT22;52068;50.710;14.492;2023-12-20T07:11:56;28.84;31.17
65472;DHT22;52068;50.710;14.492;2023-12-20T07:14:21;28.83;31.00
65472;DHT22;52068;50.710;14.492;2023-12-20T07:16:47;28.84;30.98
65472;DHT22;52068;50.710;14.492;2023-12-20T07:19:12;28.77;31.12
65472;DHT22;52068;50.710;14.492;2023-12-20T07:21:38;28.70;31.14
65472;DHT22;52068;50.710;14.492;2023-12-20T07:24:03;28.59;31.21
65472;DHT22;52068;50.710;14.492;2023-12-20T07:26:29;28.53;31.36
65472;DHT22;52068;50.710;14.492;2023-12-20T07:28:54;28.41;31.43
65472;DHT22;52068;50.710;14.492;2023-12-20T07:31:19;28.35;31.49
65472;DHT22;52068;50.710;14.492;2023-12-20T07:33:45;28.26;31.59
65472;DHT22;52068;50.710;14.492;2023-12-20T07:36:11;28.34;31.48
65472;DHT22;52068;50.710;14.492;2023-12-20T07:38:37;28.44;31.23
65472;DHT22;52068;50.710;14.492;2023-12-20T07:41:02;28.60;30.99
65472;DHT22;52068;50.710;14.492;2023-12-20T07:43:28;28.77;30.70
65472;DHT22;52068;50.710;14.492;2023-12-20T07:45:53;29.06;30.28
65472;DHT22;52068;50.710;14.492;2023-12-20T07:48:19;29.33;29.85
65472;DHT22;52068;50.710;14.492;2023-12-20T07:50:44;29.62;29.46
65472;DHT22;52068;50.710;14.492;2023-12-20T07:53:10;29.86;29.08
65472;DHT22;52068;50.710;14.492;2023-12-20T07:55:35;30.09;28.83
65472;DHT22;52068;50.710;14.492;2023-12-20T07:58:00;30.26;28.63
65472;DHT22;52068;50.710;14.492;2023-12-20T08:00:26;30.37;28.43
65472;DHT22;52068;50.710;14.492;2023-12-20T08:02:52;30.56;28.32
65472;DHT22;52068;50.710;14.492;2023-12-20T08:05:17;30.64;28.00
65472;DHT22;52068;50.710;14.492;2023-12-20T08:07:43;30.73;27.87
65472;DHT22;52068;50.710;14.492;2023-12-20T08:10:09;30.80;27.84
65472;DHT22;52068;50.710;14.492;2023-12-20T08:12:34;30.81;27.79
65472;DHT22;52068;50.710;14.492;2023-12-20T08:15:00;30.73;27.88
65472;DHT22;52068;50.710;14.492;2023-12-20T08:17:26;30.67;27.91
65472;DHT22;52068;50.710;14.492;2023-12-20T08:19:51;30.48;28.16
65472;DHT22;52068;50.710;14.492;2023-12-20T08:22:17;30.27;28.42
65472;DHT22;52068;50.710;14.492;2023-12-20T08:24:42;30.06;28.65
65472;DHT22;52068;50.710;14.492;2023-12-20T08:27:07;29.86;28.91
65472;DHT22;52068;50.710;14.492;2023-12-20T08:29:34;29.64;29.28
65472;DHT22;52068;50.710;14.492;2023-12-20T08:32:00;29.34;29.64
65472;DHT22;52068;50.710;14.492;2023-12-20T08:34:25;29.18;29.64
65472;DHT22;52068;50.710;14.492;2023-12-20T08:36:51;28.89;30.23
65472;DHT22;52068;50.710;14.492;2023-12-20T08:39:19;28.67;30.37
65472;DHT22;52068;50.710;14.492;2023-12-20T08:41:44;28.52;30.39
65472;DHT22;52068;50.710;14.492;2023-12-20T08:44:09;28.26;31.05
65472;DHT22;52068;50.710;14.492;2023-12-20T08:46:35;28.12;31.31
65472;DHT22;52068;50.710;14.492;2023-12-20T08:49:01;27.94;31.66
65472;DHT22;52068;50.710;14.492;2023-12-20T08:51:27;27.81;31.75
65472;DHT22;52068;50.710;14.492;2023-12-20T08:53:53;27.63;32.02
65472;DHT22;52068;50.710;14.492;2023-12-20T08:56:18;27.67;31.83
65472;DHT22;52068;50.710;14.492;2023-12-20T08:58:44;27.61;32.12
65472;DHT22;52068;50.710;14.492;2023-12-20T09:01:10;27.67;32.02
65472;DHT22;52068;50.710;14.492;2023-12-20T09:03:35;27.77;31.93
65472;DHT22;52068;50.710;14.492;2023-12-20T09:06:00;27.95;31.26
65472;DHT22;52068;50.710;14.492;2023-12-20T09:08:26;28.08;31.20
65472;DHT22;52068;50.710;14.492;2023-12-20T09:10:51;28.18;30.70
65472;DHT22;52068;50.710;14.492;2023-12-20T09:13:17;28.31;30.11
65472;DHT22;52068;50.710;14.492;2023-12-20T09:15:42;28.63;27.90
65472;DHT22;52068;50.710;14.492;2023-12-20T09:18:08;28.90;28.06
65472;DHT22;52068;50.710;14.492;2023-12-20T09:20:34;29.13;28.72
65472;DHT22;52068;50.710;14.492;2023-12-20T09:22:59;29.24;28.77
65472;DHT22;52068;50.710;14.492;2023-12-20T09:25:25;29.41;28.65
65472;DHT22;52068;50.710;14.492;2023-12-20T09:27:51;29.51;28.47
65472;DHT22;52068;50.710;14.492;2023-12-20T09:30:18;29.61;28.37
65472;DHT22;52068;50.710;14.492;2023-12-20T09:32:43;29.68;28.33
65472;DHT22;52068;50.710;14.492;2023-12-20T09:35:08;29.75;28.21
65472;DHT22;52068;50.710;14.492;2023-12-20T09:37:34;29.85;28.11
65472;DHT22;52068;50.710;14.492;2023-12-20T09:40:00;29.89;28.14
65472;DHT22;52068;50.710;14.492;2023-12-20T09:42:48;29.86;28.16
65472;DHT22;52068;50.710;14.492;2023-12-20T09:45:20;29.82;28.25
65472;DHT22;52068;50.710;14.492;2023-12-20T09:47:46;29.69;28.30
65472;DHT22;52068;50.710;14.492;2023-12-20T09:50:12;29.59;28.49
65472;DHT22;52068;50.710;14.492;2023-12-20T09:52:38;29.50;28.58
65472;DHT22;52068;50.710;14.492;2023-12-20T09:55:04;29.37;28.78
65472;DHT22;52068;50.710;14.492;2023-12-20T09:57:33;29.26;28.90
65472;DHT22;52068;50.710;14.492;2023-12-20T09:59:59;29.16;29.13
65472;DHT22;52068;50.710;14.492;2023-12-20T10:02:25;29.07;29.28
65472;DHT22;52068;50.710;14.492;2023-12-20T10:04:55;28.99;29.12
65472;DHT22;52068;50.710;14.492;2023-12-20T10:07:21;28.87;29.27
65472;DHT22;52068;50.710;14.492;2023-12-20T10:09:47;28.80;29.21
65472;DHT22;52068;50.710;14.492;2023-12-20T10:12:13;28.59;29.84
65472;DHT22;52068;50.710;14.492;2023-12-20T10:14:41;28.53;29.76
65472;DHT22;52068;50.710;14.492;2023-12-20T10:17:06;28.44;29.95
65472;DHT22;52068;50.710;14.492;2023-12-20T10:19:32;28.36;29.61
65472;DHT22;52068;50.710;14.492;2023-12-20T10:22:01;28.36;29.91
65472;DHT22;52068;50.710;14.492;2023-12-20T10:24:29;28.22;30.27
65472;DHT22;52068;50.710;14.492;2023-12-20T10:27:02;28.21;30.12
65472;DHT22;52068;50.710;14.492;2023-12-20T10:29:32;28.34;30.11
65472;DHT22;52068;50.710;14.492;2023-12-20T10:31:58;28.67;29.80
65472;DHT22;52068;50.710;14.492;2023-12-20T10:34:23;29.13;29.07
65472;DHT22;52068;50.710;14.492;2023-12-20T10:36:49;29.69;28.27
65472;DHT22;52068;50.710;14.492;2023-12-20T10:39:15;30.33;27.59
65472;DHT22;52068;50.710;14.492;2023-12-20T10:41:42;30.94;26.83
65472;DHT22;52068;50.710;14.492;2023-12-20T10:44:08;31.49;26.19
65472;DHT22;52068;50.710;14.492;2023-12-20T10:46:34;31.96;25.65
65472;DHT22;52068;50.710;14.492;2023-12-20T10:49:02;32.30;25.27
65472;DHT22;52068;50.710;14.492;2023-12-20T10:51:28;32.54;25.04
65472;DHT22;52068;50.710;14.492;2023-12-20T10:53:56;32.57;24.83
65472;DHT22;52068;50.710;14.492;2023-12-20T10:56:22;32.47;24.94
65472;DHT22;52068;50.710;14.492;2023-12-20T10:58:49;32.06;25.54
65472;DHT22;52068;50.710;14.492;2023-12-20T11:01:16;31.67;25.97
65472;DHT22;52068;50.710;14.492;2023-12-20T11:03:52;31.18;26.40
65472;DHT22;52068;50.710;14.492;2023-12-20T11:06:27;30.71;26.99
65472;DHT22;52068;50.710;14.492;2023-12-20T11:09:25;30.20;27.23
65472;DHT22;52068;50.710;14.492;2023-12-20T11:12:11;29.79;27.31
65472;DHT22;52068;50.710;14.492;2023-12-20T11:14:50;29.35;27.89
65472;DHT22;52068;50.710;14.492;2023-12-20T11:17:16;28.90;28.95
65472;DHT22;52068;50.710;14.492;2023-12-20T11:22:30;27.98;30.39
65472;DHT22;52068;50.710;14.492;2023-12-20T11:25:06;27.60;30.61
65472;DHT22;52068;50.710;14.492;2023-12-20T11:27:44;27.22;31.48
65472;DHT22;52068;50.710;14.492;2023-12-20T11:30:10;26.89;32.26
65472;DHT22;52068;50.710;14.492;2023-12-20T11:32:36;26.61;32.48
65472;DHT22;52068;50.710;14.492;2023-12-20T11:37:38;26.91;32.47
65472;DHT22;52068;50.710;14.492;2023-12-20T11:40:07;27.47;31.80
65472;DHT22;52068;50.710;14.492;2023-12-20T11:42:41;28.32;30.36
65472;DHT22;52068;50.710;14.492;2023-12-20T11:45:21;29.23;29.31
65472;DHT22;52068;50.710;14.492;2023-12-20T11:47:48;29.99;28.32
65472;DHT22;52068;50.710;14.492;2023-12-20T11:50:20;30.52;27.56
65472;DHT22;52068;50.710;14.492;2023-12-20T11:52:46;30.81;26.98
65472;DHT22;52068;50.710;14.492;2023-12-20T11:55:11;30.86;27.00
65472;DHT22;52068;50.710;14.492;2023-12-20T11:57:37;30.74;27.05
65472;DHT22;52068;50.710;14.492;2023-12-20T12:00:04;30.40;27.26
65472;DHT22;52068;50.710;14.492;2023-12-20T12:02:30;30.09;27.82
65472;DHT22;52068;50.710;14.492;2023-12-20T12:04:56;29.68;28.30
65472;DHT22;52068;50.710;14.492;2023-12-20T12:07:22;29.33;28.76
65472;DHT22;52068;50.710;14.492;2023-12-20T12:09:47;28.97;28.80
65472;DHT22;52068;50.710;14.492;2023-12-20T12:12:13;28.62;28.91
65472;DHT22;52068;50.710;14.492;2023-12-20T12:14:39;28.26;29.57
65472;DHT22;52068;50.710;14.492;2023-12-20T12:17:14;27.80;30.84
65472;DHT22;52068;50.710;14.492;2023-12-20T12:19:41;27.49;30.98
65472;DHT22;52068;50.710;14.492;2023-12-20T12:22:14;27.25;31.69
65472;DHT22;52068;50.710;14.492;2023-12-20T12:24:41;27.35;31.56
65472;DHT22;52068;50.710;14.492;2023-12-20T12:27:07;27.88;30.97
65472;DHT22;52068;50.710;14.492;2023-12-20T12:29:34;28.72;29.77
65472;DHT22;52068;50.710;14.492;2023-12-20T12:32:00;29.57;28.45
65472;DHT22;52068;50.710;14.492;2023-12-20T12:34:28;30.46;27.49
65472;DHT22;52068;50.710;14.492;2023-12-20T12:36:54;31.18;26.57
65472;DHT22;52068;50.710;14.492;2023-12-20T12:39:19;31.76;25.82
65472;DHT22;52068;50.710;14.492;2023-12-20T12:41:45;32.20;26.47
65472;DHT22;52068;50.710;14.492;2023-12-20T12:44:10;32.55;26.03
65472;DHT22;52068;50.710;14.492;2023-12-20T12:46:35;32.79;25.34
65472;DHT22;52068;50.710;14.492;2023-12-20T12:49:01;32.91;25.16
65472;DHT22;52068;50.710;14.492;2023-12-20T12:51:26;32.85;25.08
65472;DHT22;52068;50.710;14.492;2023-12-20T12:53:53;32.60;25.31
65472;DHT22;52068;50.710;14.492;2023-12-20T12:56:19;32.26;25.57
65472;DHT22;52068;50.710;14.492;2023-12-20T12:58:44;31.89;26.00
65472;DHT22;52068;50.710;14.492;2023-12-20T13:01:10;31.49;26.49
65472;DHT22;52068;50.710;14.492;2023-12-20T13:03:35;31.01;27.10
65472;DHT22;52068;50.710;14.492;2023-12-20T13:06:01;30.54;27.53
65472;DHT22;52068;50.710;14.492;2023-12-20T13:08:27;30.06;27.91
65472;DHT22;52068;50.710;14.492;2023-12-20T13:10:54;29.68;28.44
65472;DHT22;52068;50.710;14.492;2023-12-20T13:13:19;29.26;28.95
65472;DHT22;52068;50.710;14.492;2023-12-20T13:15:44;28.87;29.42
65472;DHT22;52068;50.710;14.492;2023-12-20T13:18:17;28.39;29.87
65472;DHT22;52068;50.710;14.492;2023-12-20T13:20:45;28.16;29.32
65472;DHT22;52068;50.710;14.492;2023-12-20T13:23:11;27.94;30.29
65472;DHT22;52068;50.710;14.492;2023-12-20T13:25:36;27.95;30.36
65472;DHT22;52068;50.710;14.492;2023-12-20T13:28:02;28.19;29.76
65472;DHT22;52068;50.710;14.492;2023-12-20T13:30:30;28.63;29.87
65472;DHT22;52068;50.710;14.492;2023-12-20T13:32:56;29.21;28.99
65472;DHT22;52068;50.710;14.492;2023-12-20T13:35:21;29.84;28.08
65472;DHT22;52068;50.710;14.492;2023-12-20T13:37:47;30.44;27.41
65472;DHT22;52068;50.710;14.492;2023-12-20T13:40:12;30.97;26.76
65472;DHT22;52068;50.710;14.492;2023-12-20T13:42:40;31.35;26.26
65472;DHT22;52068;50.710;14.492;2023-12-20T13:45:07;31.67;25.87
65472;DHT22;52068;50.710;14.492;2023-12-20T13:47:35;31.80;25.61
65472;DHT22;52068;50.710;14.492;2023-12-20T13:50:00;31.76;25.61
65472;DHT22;52068;50.710;14.492;2023-12-20T13:52:26;31.66;25.85
65472;DHT22;52068;50.710;14.492;2023-12-20T13:54:51;31.38;26.05
65472;DHT22;52068;50.710;14.492;2023-12-20T13:57:16;31.04;26.30
65472;DHT22;52068;50.710;14.492;2023-12-20T13:59:42;30.66;26.87
65472;DHT22;52068;50.710;14.492;2023-12-20T14:02:08;30.26;27.12
65472;DHT22;52068;50.710;14.492;2023-12-20T14:04:33;29.86;27.34
65472;DHT22;52068;50.710;14.492;2023-12-20T14:06:59;29.53;27.16
65472;DHT22;52068;50.710;14.492;2023-12-20T14:09:24;29.18;27.54
65472;DHT22;52068;50.710;14.492;2023-12-20T14:11:50;28.93;28.13
65472;DHT22;52068;50.710;14.492;2023-12-20T14:14:15;28.60;28.70
65472;DHT22;52068;50.710;14.492;2023-12-20T14:16:40;28.26;29.22
65472;DHT22;52068;50.710;14.492;2023-12-20T14:19:08;27.95;29.52
65472;DHT22;52068;50.710;14.492;2023-12-20T14:21:34;27.84;29.34
65472;DHT22;52068;50.710;14.492;2023-12-20T14:24:00;27.88;29.45
65472;DHT22;52068;50.710;14.492;2023-12-20T14:26:25;27.98;29.39
65472;DHT22;52068;50.710;14.492;2023-12-20T14:28:52;28.24;29.17
65472;DHT22;52068;50.710;14.492;2023-12-20T14:31:18;28.57;29.26
65472;DHT22;52068;50.710;14.492;2023-12-20T14:33:43;28.96;28.99
65472;DHT22;52068;50.710;14.492;2023-12-20T14:36:09;29.45;28.51
65472;DHT22;52068;50.710;14.492;2023-12-20T14:38:34;29.93;27.96
65472;DHT22;52068;50.710;14.492;2023-12-20T14:41:00;30.29;27.34
65472;DHT22;52068;50.710;14.492;2023-12-20T14:43:28;30.63;26.92
65472;DHT22;52068;50.710;14.492;2023-12-20T14:45:53;30.90;26.66
65472;DHT22;52068;50.710;14.492;2023-12-20T14:48:19;31.17;26.32
65472;DHT22;52068;50.710;14.492;2023-12-20T14:50:44;31.35;26.11
65472;DHT22;52068;50.710;14.492;2023-12-20T14:53:12;31.39;26.03
65472;DHT22;52068;50.710;14.492;2023-12-20T14:55:38;31.42;25.96
65472;DHT22;52068;50.710;14.492;2023-12-20T14:58:04;31.41;25.94
65472;DHT22;52068;50.710;14.492;2023-12-20T15:00:30;31.28;26.14
65472;DHT22;52068;50.710;14.492;2023-12-20T15:02:55;31.05;26.38
65472;DHT22;52068;50.710;14.492;2023-12-20T15:05:21;30.92;26.62
65472;DHT22;52068;50.710;14.492;2023-12-20T15:07:46;30.70;26.80
65472;DHT22;52068;50.710;14.492;2023-12-20T15:10:14;30.46;27.06
65472;DHT22;52068;50.710;14.492;2023-12-20T15:12:39;30.25;27.20
65472;DHT22;52068;50.710;14.492;2023-12-20T15:15:05;30.04;27.51